الصفحة الرئيسية
METAR-TAF:

METAR-TAF

مطار :

مطار ورززات

ورززات, المغرب

دائرة عرض: 30-56N, خط طول: 006-54W, ارتفاع: 1139 متر

مراقبة الطقس الحالي

تاريخ ووقت الإصدار 25 دقيقة قبل الساعة 14:00UTC
ريح 5 عقدة من الغرب/الشمال الغربي, الاتجاه يتراوح بين الجنوب/الجنوب الغربي و الشمال
درجة الحرارة 11°درجة مئوية
الرطوبة 37%
ضغط 1011 hPa
الرؤية 10 كم أو أكثر
غيوم متفرقة على ارتفاع 3000 قدم

METAR: GMMZ 211400Z 29005KT 210V360 9999 SCT030 11/M03 Q1011 NOSIG

زمن: 15:25 (14:25 UTC)

توقعات

تاريخ ووقت الإصدار 3ساعات و 25 دقيقة قبل الساعة 11:00UTC
التوقعات صالحة من21 الساعة 12 UTC إلى 22 الساعة 18 UTC
ريح 1 عقدةمن اتجاهات متغيرة
الرؤية 10 كم أو أكثر
غيوم متفرقة على ارتفاع 3000 قدم
مؤقت
من 21 الساعة 15 UTC إلى 21 الساعة 21 UTC
غيوم مفككة على ارتفاع 3000 قدم
غيوم قليلة على ارتفاع 4000 قدم, مزن ركامية عمودية.

TAF: GMMZ 211100Z 2112/2218 VRB01KT 9999 SCT030 TEMPO 2115/2121 BKN030 FEW040TCU

أرصاد الطقس والتوقعات من أكثر من 4000 مطار (تقارير الطقس للمطار METAR والتنبؤ بالطقس بالمطارTAF).

المحطات المتاحة هي النقط الصفراء والحمراء على الخريطة.

حرك المؤشر فوق النقطة لمعرفة اسم المحطة.

ثم انقر لمعرفة أرصاد وتوقعات الطقس.

لتغيير الخارطة: اضغط على الأزرار الخضراء مع رمز الصليب الأسود للتكبير. على الزر الأخضر مع شرطة للتصغير، أو على الأسهم الخضراء للخرائط المجاورة.


METAR-TAF: